Create Tblcommutelog Verified Points Advance Search
| # | Trip ID | Id Commuter | Trip Date | Trip Num | Current Lat | Current Lng | Delta Distance | Current Time | Activity | Activity Confidence | Current Speed | |
|---|---|---|---|---|---|---|---|---|---|---|---|---|
| 72381 | 250807_776960_16414408_0637 | 776960 | (not set) | (not set) | 39.336629731334 | -76.624223879129 | 0.8075 | 2025-08-07 06:41:51 | in_vehicle | 100 | 5.1409514783588 | |
| 72382 | 250807_779784_16456978_0631 | 779784 | (not set) | (not set) | 39.232695390199 | -77.284024231529 | 4.5374 | 2025-08-07 06:41:51 | still | 33 | 6.8754638032312 | |
| 72383 | 250807_786113_16505268_0631 | 786113 | (not set) | (not set) | 38.802130970874 | -77.110097041702 | 12.3471 | 2025-08-07 06:41:51 | in_vehicle | 100 | 14.394664139405 | |
| 72384 | 250807_786937_16483549_0636 | 786937 | (not set) | (not set) | 39.385684934211 | -76.757314808861 | 1.9267 | 2025-08-07 06:41:53 | still | 33 | 11.757132511377 | |
| 72385 | 250807_786937_16483549_0636 | 786937 | (not set) | (not set) | 39.385684934211 | -76.757314808861 | 1.9267 | 2025-08-07 06:41:53 | still | 33 | 11.757132511377 | |
| 72386 | 250807_787968_16505268_0631 | 787968 | (not set) | (not set) | 38.802446238175 | -77.108671184192 | 12.2131 | 2025-08-07 06:41:55 | in_vehicle | 100 | 14.55559827264 | |
| 72387 | 250807_753838_16489150_0631 | 753838 | (not set) | (not set) | 38.907074613533 | -77.034690294122 | 0.4131 | 2025-08-07 06:41:57 | on_foot | 100 | 0.72420359956011 | |
| 72388 | 250807_784692_16513841_0631 | 784692 | (not set) | (not set) | 38.802798181991 | -77.106456607502 | 14.3599 | 2025-08-07 06:42:01 | in_vehicle | 100 | 14.640535731848 | |
| 72389 | 250807_786113_16505268_0631 | 786113 | (not set) | (not set) | 38.80284003492 | -77.106066369331 | 12.5701 | 2025-08-07 06:42:02 | in_vehicle | 100 | 14.618183768899 | |
| 72390 | 250807_782322_16504834_0639 | 782322 | (not set) | (not set) | 39.17665454485 | -77.26411126454 | 0.7421 | 2025-08-07 06:42:02 | unknown | 100 | 5.4941124929591 | |
| 72391 | 250807_779784_16456978_0631 | 779784 | (not set) | (not set) | 39.23130203592 | -77.285576836756 | 4.6646 | 2025-08-07 06:42:02 | in_vehicle | 100 | 8.8558477205468 | |
| 72392 | 250807_785790_16443766_0630 | 785790 | (not set) | (not set) | 39.293708385942 | -76.59413702218 | 1.6136 | 2025-08-07 06:42:03 | in_vehicle | 100 | 4.041234901249 | |
| 72393 | 250807_763853_16464864_0637 | 763853 | (not set) | (not set) | 38.901287727094 | -77.522706414622 | 1.5676 | 2025-08-07 06:42:03 | in_vehicle | 100 | 6.0707931370533 | |
| 72394 | 250807_784252_16652453_0639 | 784252 | (not set) | (not set) | 39.437275286828 | -77.459052257292 | 0.3157 | 2025-08-07 06:42:06 | in_vehicle | 100 | 7.027457151287 | |
| 72395 | 250807_787968_16505268_0631 | 787968 | (not set) | (not set) | 38.80301236613 | -77.103899972824 | 12.4736 | 2025-08-07 06:42:08 | in_vehicle | 100 | 13.871628206389 | |
| 72396 | 250807_786871_16483549_0629 | 786871 | (not set) | (not set) | 39.384079757226 | -76.759456635593 | 1.261 | 2025-08-07 06:42:06 | in_vehicle | 100 | -0.44703925898772 | |
| 72397 | 250807_786871_16483549_0629 | 786871 | (not set) | (not set) | 39.386708865615 | -76.764160163265 | 1.261 | 2025-08-07 06:42:06 | in_vehicle | 100 | -0.44703925898772 | |
| 72398 | 250807_782322_16504834_0639 | 782322 | (not set) | (not set) | 39.175602760705 | -77.262985801437 | 0.8366 | 2025-08-07 06:42:12 | unknown | 100 | 7.3716773807076 | |
| 72399 | 250807_784692_16513841_0631 | 784692 | (not set) | (not set) | 38.803038926606 | -77.101711266542 | 14.6166 | 2025-08-07 06:42:14 | in_vehicle | 100 | 14.2203188284 | |
| 72400 | 250807_779784_16456978_0631 | 779784 | (not set) | (not set) | 39.229507833333 | -77.287532066667 | 4.8268 | 2025-08-07 06:42:14 | in_vehicle | 100 | 9.4504099350005 |